New Orleans, Louisiana
Traffic Map
Current Weather Conditions
New Orleans, Louisiana
Overcast
Overcast
52°
Feels Like: 52°
Wind Chill: 52° Ceiling: 800
Heat Index: 52° Visibility: 10mi
Dew Point: 45° Wind: 13mph
Humidity: 76% Direction: 60° (ENE)
Pressure: 30.1in Gusts: 18mph
Raw Report DataKVSH 200135Z AUTO 06011G16KT 010V070 10SM OVC008 11/07 A3010 RMK AO1
Traffic Incident Summary
Active as of:
Severity:
Category:
InformationThere was an issue retrieving the traffic information for this location. Please try a different location or try again shortly.
Advertisements
Track Severe Weather on mobile